sensor_id;sensor_type;location;lat;lon;timestamp;P1;durP1;ratioP1;P2;durP2;ratioP2
48034;SDS011;33812;46.480;6.834;2022-12-18T16:10:08;6.07;;;1.90;;
48034;SDS011;33812;46.480;6.834;2022-12-18T16:14:17;4.75;;;1.83;;
48034;SDS011;33812;46.480;6.834;2022-12-18T16:18:20;12.70;;;1.67;;
48034;SDS011;33812;46.480;6.834;2022-12-18T16:22:24;11.98;;;2.30;;
48034;SDS011;33812;46.480;6.834;2022-12-18T16:26:29;3.38;;;1.70;;
48034;SDS011;33812;46.480;6.834;2022-12-18T16:30:37;10.43;;;1.90;;
48034;SDS011;33812;46.480;6.834;2022-12-18T16:34:43;13.35;;;2.08;;
48034;SDS011;33812;46.480;6.834;2022-12-18T16:38:51;3.75;;;2.08;;
48034;SDS011;33812;46.480;6.834;2022-12-18T16:42:55;7.22;;;1.95;;
48034;SDS011;33812;46.480;6.834;2022-12-18T16:46:56;3.78;;;2.05;;
48034;SDS011;33812;46.480;6.834;2022-12-18T16:51:02;9.63;;;1.73;;
48034;SDS011;33812;46.480;6.834;2022-12-18T16:55:05;5.72;;;2.97;;
48034;SDS011;33812;46.480;6.834;2022-12-18T16:59:10;6.03;;;2.15;;
48034;SDS011;33812;46.480;6.834;2022-12-18T17:03:12;5.35;;;2.63;;
48034;SDS011;33812;46.480;6.834;2022-12-18T17:07:14;3.78;;;2.00;;
48034;SDS011;33812;46.480;6.834;2022-12-18T17:11:24;6.97;;;1.80;;
48034;SDS011;33812;46.480;6.834;2022-12-18T17:15:35;5.75;;;2.22;;
48034;SDS011;33812;46.480;6.834;2022-12-18T17:19:37;5.55;;;2.28;;
48034;SDS011;33812;46.480;6.834;2022-12-18T17:23:40;5.05;;;2.33;;
48034;SDS011;33812;46.480;6.834;2022-12-18T17:27:43;9.75;;;2.13;;
48034;SDS011;33812;46.480;6.834;2022-12-18T17:31:47;3.30;;;2.08;;
48034;SDS011;33812;46.480;6.834;2022-12-18T17:35:49;5.70;;;2.67;;
48034;SDS011;33812;46.480;6.834;2022-12-18T17:39:52;8.90;;;2.33;;
48034;SDS011;33812;46.480;6.834;2022-12-18T17:43:55;5.22;;;2.10;;
48034;SDS011;33812;46.480;6.834;2022-12-18T17:47:59;2.88;;;2.15;;
48034;SDS011;33812;46.480;6.834;2022-12-18T17:52:01;5.43;;;2.20;;
48034;SDS011;33812;46.480;6.834;2022-12-18T17:56:03;5.78;;;2.20;;
48034;SDS011;33812;46.480;6.834;2022-12-18T18:00:06;10.05;;;2.33;;
48034;SDS011;33812;46.480;6.834;2022-12-18T18:04:14;11.93;;;1.92;;
48034;SDS011;33812;46.480;6.834;2022-12-18T18:08:15;3.97;;;1.83;;
48034;SDS011;33812;46.480;6.834;2022-12-18T18:12:17;10.73;;;2.42;;
48034;SDS011;33812;46.480;6.834;2022-12-18T18:16:37;4.90;;;2.05;;
48034;SDS011;33812;46.480;6.834;2022-12-18T18:20:42;8.63;;;1.97;;
48034;SDS011;33812;46.480;6.834;2022-12-18T18:24:44;5.22;;;2.08;;
48034;SDS011;33812;46.480;6.834;2022-12-18T18:28:46;4.10;;;2.00;;
48034;SDS011;33812;46.480;6.834;2022-12-18T18:32:48;3.63;;;1.92;;
48034;SDS011;33812;46.480;6.834;2022-12-18T18:36:51;5.50;;;2.10;;
48034;SDS011;33812;46.480;6.834;2022-12-18T18:41:00;6.68;;;2.20;;
48034;SDS011;33812;46.480;6.834;2022-12-18T18:45:05;5.25;;;2.55;;
48034;SDS011;33812;46.480;6.834;2022-12-18T18:49:08;9.32;;;2.33;;
48034;SDS011;33812;46.480;6.834;2022-12-18T18:53:14;4.63;;;3.08;;
48034;SDS011;33812;46.480;6.834;2022-12-18T18:57:16;12.75;;;2.33;;
48034;SDS011;33812;46.480;6.834;2022-12-18T19:01:18;14.93;;;2.08;;
48034;SDS011;33812;46.480;6.834;2022-12-18T19:05:21;12.45;;;2.33;;
48034;SDS011;33812;46.480;6.834;2022-12-18T19:09:24;12.23;;;2.30;;
48034;SDS011;33812;46.480;6.834;2022-12-18T19:13:26;7.00;;;3.40;;
48034;SDS011;33812;46.480;6.834;2022-12-18T19:17:30;11.93;;;6.72;;
48034;SDS011;33812;46.480;6.834;2022-12-18T19:21:33;11.13;;;7.97;;
48034;SDS011;33812;46.480;6.834;2022-12-18T19:25:38;13.73;;;11.35;;
48034;SDS011;33812;46.480;6.834;2022-12-18T19:29:40;12.00;;;8.20;;
48034;SDS011;33812;46.480;6.834;2022-12-18T19:33:43;8.75;;;5.47;;
48034;SDS011;33812;46.480;6.834;2022-12-18T19:37:46;7.57;;;4.03;;
48034;SDS011;33812;46.480;6.834;2022-12-18T19:45:54;11.32;;;3.70;;
48034;SDS011;33812;46.480;6.834;2022-12-18T19:49:56;11.30;;;3.67;;
48034;SDS011;33812;46.480;6.834;2022-12-18T19:53:58;4.30;;;3.00;;
48034;SDS011;33812;46.480;6.834;2022-12-18T19:58:02;6.60;;;2.88;;
48034;SDS011;33812;46.480;6.834;2022-12-18T20:02:04;7.30;;;3.72;;
48034;SDS011;33812;46.480;6.834;2022-12-18T20:06:14;3.72;;;2.50;;
48034;SDS011;33812;46.480;6.834;2022-12-18T20:10:22;5.53;;;2.83;;
48034;SDS011;33812;46.480;6.834;2022-12-18T20:18:37;4.45;;;2.47;;
48034;SDS011;33812;46.480;6.834;2022-12-18T20:26:44;4.57;;;2.28;;
48034;SDS011;33812;46.480;6.834;2022-12-18T20:31:00;5.25;;;2.53;;
48034;SDS011;33812;46.480;6.834;2022-12-18T20:35:16;6.93;;;2.40;;
48034;SDS011;33812;46.480;6.834;2022-12-18T20:39:27;4.28;;;2.70;;
48034;SDS011;33812;46.480;6.834;2022-12-18T20:43:31;6.60;;;2.53;;
48034;SDS011;33812;46.480;6.834;2022-12-18T20:47:37;2.80;;;1.98;;
48034;SDS011;33812;46.480;6.834;2022-12-18T20:51:39;4.97;;;1.92;;
48034;SDS011;33812;46.480;6.834;2022-12-18T20:55:41;3.78;;;2.05;;
48034;SDS011;33812;46.480;6.834;2022-12-18T20:59:43;5.70;;;2.20;;
48034;SDS011;33812;46.480;6.834;2022-12-18T21:03:47;4.47;;;1.85;;
48034;SDS011;33812;46.480;6.834;2022-12-18T21:07:49;4.80;;;1.90;;
48034;SDS011;33812;46.480;6.834;2022-12-18T21:11:51;2.95;;;2.00;;
48034;SDS011;33812;46.480;6.834;2022-12-18T21:16:11;3.50;;;2.05;;
48034;SDS011;33812;46.480;6.834;2022-12-18T21:20:14;3.35;;;1.90;;
48034;SDS011;33812;46.480;6.834;2022-12-18T21:24:18;3.63;;;2.30;;
48034;SDS011;33812;46.480;6.834;2022-12-18T21:28:20;2.65;;;1.85;;
48034;SDS011;33812;46.480;6.834;2022-12-18T21:32:22;4.82;;;1.83;;
48034;SDS011;33812;46.480;6.834;2022-12-18T21:36:26;2.42;;;1.60;;
48034;SDS011;33812;46.480;6.834;2022-12-18T21:40:29;5.47;;;2.00;;
48034;SDS011;33812;46.480;6.834;2022-12-18T21:44:31;3.20;;;1.58;;
48034;SDS011;33812;46.480;6.834;2022-12-18T21:48:32;3.53;;;1.60;;
48034;SDS011;33812;46.480;6.834;2022-12-18T21:56:46;5.78;;;1.80;;
48034;SDS011;33812;46.480;6.834;2022-12-18T22:00:50;3.05;;;1.63;;
48034;SDS011;33812;46.480;6.834;2022-12-18T22:04:52;1.92;;;1.65;;
48034;SDS011;33812;46.480;6.834;2022-12-18T22:08:55;3.03;;;1.80;;
48034;SDS011;33812;46.480;6.834;2022-12-18T22:12:57;4.65;;;1.48;;
48034;SDS011;33812;46.480;6.834;2022-12-18T22:16:59;2.20;;;1.70;;
48034;SDS011;33812;46.480;6.834;2022-12-18T22:21:01;2.08;;;1.63;;
48034;SDS011;33812;46.480;6.834;2022-12-18T22:25:05;2.15;;;1.58;;
48034;SDS011;33812;46.480;6.834;2022-12-18T22:29:09;1.85;;;1.50;;
48034;SDS011;33812;46.480;6.834;2022-12-18T22:33:32;2.35;;;1.70;;
48034;SDS011;33812;46.480;6.834;2022-12-18T22:37:33;2.35;;;1.35;;
48034;SDS011;33812;46.480;6.834;2022-12-18T22:41:37;2.80;;;1.80;;
48034;SDS011;33812;46.480;6.834;2022-12-18T22:45:38;3.50;;;1.48;;
48034;SDS011;33812;46.480;6.834;2022-12-18T22:49:41;1.88;;;1.42;;
48034;SDS011;33812;46.480;6.834;2022-12-18T22:53:43;2.45;;;1.75;;
48034;SDS011;33812;46.480;6.834;2022-12-18T22:57:46;2.17;;;1.45;;
48034;SDS011;33812;46.480;6.834;2022-12-18T23:01:49;2.27;;;1.30;;
48034;SDS011;33812;46.480;6.834;2022-12-18T23:05:52;1.92;;;1.55;;
48034;SDS011;33812;46.480;6.834;2022-12-18T23:09:54;2.60;;;1.60;;
48034;SDS011;33812;46.480;6.834;2022-12-18T23:13:57;2.00;;;1.48;;
48034;SDS011;33812;46.480;6.834;2022-12-18T23:17:59;2.72;;;1.70;;
48034;SDS011;33812;46.480;6.834;2022-12-18T23:22:02;3.30;;;1.83;;
48034;SDS011;33812;46.480;6.834;2022-12-18T23:26:04;4.22;;;2.30;;
48034;SDS011;33812;46.480;6.834;2022-12-18T23:30:10;2.15;;;1.67;;
48034;SDS011;33812;46.480;6.834;2022-12-18T23:34:13;3.72;;;1.80;;
48034;SDS011;33812;46.480;6.834;2022-12-18T23:38:16;2.13;;;1.70;;
48034;SDS011;33812;46.480;6.834;2022-12-18T23:42:18;3.35;;;2.00;;
48034;SDS011;33812;46.480;6.834;2022-12-18T23:46:22;1.80;;;1.60;;
48034;SDS011;33812;46.480;6.834;2022-12-18T23:50:26;1.60;;;1.50;;
48034;SDS011;33812;46.480;6.834;2022-12-18T23:54:28;2.17;;;1.65;;
48034;SDS011;33812;46.480;6.834;2022-12-18T23:58:30;2.80;;;1.80;;
